Time;durP1;ratioP1;P1;durP2;ratioP2;P2;SDS_P1;SDS_P2;PMS_P1;PMS_P2;Temp;Humidity;BMP_temperature;BMP_pressure;BME280_temperature;BME280_humidity;BME280_pressure;Samples;Min_cycle;Max_cycle;Signal;HPM_P1;HPM_P2
2021/01/07 00:00:19;;;;;;;49.95;25.50;;;;;;;0.35;100.00;100954.03;5036785;28;20040;-54
2021/01/07 00:02:46;;;;;;;54.65;25.50;;;;;;;0.27;100.00;100956.28;5038783;28;20045;-52
2021/01/07 00:05:14;;;;;;;53.10;25.25;;;;;;;0.31;100.00;100948.13;5039883;28;20037;-53
2021/01/07 00:07:41;;;;;;;48.80;23.52;;;;;;;0.48;100.00;100946.22;5041528;28;20049;-54
2021/01/07 00:10:09;;;;;;;55.00;25.05;;;;;;;0.43;100.00;100936.03;5040560;28;20052;-54
2021/01/07 00:12:36;;;;;;;47.42;22.63;;;;;;;0.59;100.00;100937.69;5035227;28;20041;-52
2021/01/07 00:15:04;;;;;;;44.03;23.17;;;;;;;0.59;100.00;100929.81;5043136;28;20096;-54
2021/01/07 00:17:32;;;;;;;42.53;22.38;;;;;;;0.63;100.00;100934.78;5039144;28;20037;-54
2021/01/07 00:19:59;;;;;;;37.28;17.83;;;;;;;0.67;100.00;100923.13;5036841;28;20076;-53
2021/01/07 00:22:26;;;;;;;39.67;21.00;;;;;;;0.63;100.00;100924.25;5040019;28;20440;-52
2021/01/07 00:24:52;;;;;;;38.28;19.75;;;;;;;0.58;100.00;100926.34;5044973;28;20052;-53
2021/01/07 00:27:19;;;;;;;45.33;21.45;;;;;;;0.60;100.00;100926.25;5044939;28;20041;-52
2021/01/07 00:29:46;;;;;;;40.75;19.67;;;;;;;0.60;100.00;100924.47;5038486;28;20408;-55
2021/01/07 00:32:13;;;;;;;38.10;18.55;;;;;;;0.63;100.00;100921.63;5035015;28;20041;-52
2021/01/07 00:34:41;;;;;;;36.75;17.58;;;;;;;0.62;100.00;100922.56;5046285;28;20037;-53
2021/01/07 00:37:08;;;;;;;32.88;17.80;;;;;;;0.58;100.00;100926.34;5039361;28;20048;-52
2021/01/07 00:39:35;;;;;;;35.13;16.67;;;;;;;0.67;100.00;100922.28;5042965;28;20048;-54
2021/01/07 00:42:03;;;;;;;33.40;17.27;;;;;;;0.64;100.00;100920.69;5036626;28;20040;-52
2021/01/07 00:44:30;;;;;;;35.78;17.42;;;;;;;0.56;100.00;100914.25;5042112;28;20482;-54
2021/01/07 00:46:56;;;;;;;32.78;17.40;;;;;;;0.54;100.00;100914.34;5042229;28;20298;-53
2021/01/07 00:49:23;;;;;;;36.28;16.30;;;;;;;0.48;100.00;100914.69;5035682;28;20044;-54
2021/01/07 00:51:51;;;;;;;36.58;17.67;;;;;;;0.43;100.00;100916.78;5036676;28;20056;-54
2021/01/07 00:54:18;;;;;;;36.55;18.80;;;;;;;0.43;100.00;100907.13;5040671;28;20037;-51
2021/01/07 00:56:45;;;;;;;39.97;17.17;;;;;;;0.54;100.00;100908.22;5039683;28;20063;-53
2021/01/07 00:59:12;;;;;;;27.92;15.63;;;;;;;0.60;100.00;100907.84;5042630;28;20056;-53
2021/01/07 01:01:43;;;;;;;30.92;14.82;;;;;;;0.70;100.00;100898.44;5039104;28;20045;-52
2021/01/07 01:04:10;;;;;;;33.72;15.55;;;;;;;0.71;100.00;100905.41;5036570;28;20052;-51
2021/01/07 01:06:37;;;;;;;27.77;14.27;;;;;;;0.74;100.00;100901.69;5038637;28;20437;-54
2021/01/07 01:09:06;;;;;;;30.33;15.60;;;;;;;0.73;100.00;100905.28;5039334;28;20341;-52
2021/01/07 01:11:38;;;;;;;29.48;15.65;;;;;;;0.81;100.00;100905.66;5038093;28;20342;-52
2021/01/07 01:14:05;;;;;;;34.13;16.38;;;;;;;0.62;100.00;100905.97;5037907;28;20048;-52
2021/01/07 01:16:32;;;;;;;26.02;14.05;;;;;;;0.74;100.00;100899.94;5035721;28;20048;-51
2021/01/07 01:18:59;;;;;;;30.50;16.48;;;;;;;0.74;100.00;100904.31;5033088;28;20048;-53
2021/01/07 01:21:26;;;;;;;29.90;15.60;;;;;;;0.78;100.00;100903.19;5039482;28;20040;-52
2021/01/07 01:23:54;;;;;;;31.10;16.48;;;;;;;0.80;100.00;100909.22;5037077;28;20041;-51
2021/01/07 01:26:21;;;;;;;30.73;15.48;;;;;;;0.90;100.00;100907.69;5041955;28;20037;-53
2021/01/07 01:28:48;;;;;;;29.50;15.48;;;;;;;0.84;100.00;100908.09;5043221;28;20201;-54
2021/01/07 01:31:15;;;;;;;28.92;14.82;;;;;;;0.82;100.00;100896.81;5039783;28;20049;-55
2021/01/07 01:33:42;;;;;;;31.33;15.75;;;;;;;0.78;100.00;100890.91;5036354;28;20464;-55
2021/01/07 01:36:09;;;;;;;32.88;16.33;;;;;;;0.86;100.00;100898.28;5043244;28;20350;-54
2021/01/07 01:38:36;;;;;;;33.33;16.50;;;;;;;0.66;100.00;100897.78;5037028;28;20064;-53
2021/01/07 01:41:03;;;;;;;30.33;16.10;;;;;;;0.64;100.00;100899.66;5041908;28;20253;-54
2021/01/07 01:43:33;;;;;;;31.80;15.50;;;;;;;0.62;100.00;100893.66;5045538;28;20317;-54
2021/01/07 01:46:00;;;;;;;30.55;16.83;;;;;;;0.66;100.00;100899.56;5042093;28;20048;-55
2021/01/07 01:48:27;;;;;;;32.28;16.02;;;;;;;0.77;100.00;100893.63;5044687;28;20457;-51
2021/01/07 01:50:54;;;;;;;31.33;16.65;;;;;;;0.71;100.00;100899.28;5042302;28;20037;-51
2021/01/07 01:53:22;;;;;;;33.53;16.50;;;;;;;0.73;100.00;100892.16;5039546;28;20364;-51
2021/01/07 01:55:49;;;;;;;35.88;18.23;;;;;;;0.64;100.00;100886.53;5042189;28;20187;-52
2021/01/07 01:58:17;;;;;;;35.72;19.30;;;;;;;0.54;100.00;100888.06;5041254;28;20467;-53
2021/01/07 02:00:45;;;;;;;31.48;15.75;;;;;;;0.61;100.00;100891.13;5035229;28;20458;-51
2021/01/07 02:03:12;;;;;;;33.95;19.83;;;;;;;0.51;100.00;100893.47;5038926;28;20081;-53
2021/01/07 02:05:40;;;;;;;37.50;19.45;;;;;;;0.53;100.00;100889.00;5037749;28;20120;-51
2021/01/07 02:08:09;;;;;;;37.95;18.00;;;;;;;0.60;100.00;100892.91;5037223;28;20433;-51
2021/01/07 02:10:36;;;;;;;38.45;17.70;;;;;;;0.48;100.00;100883.16;5037716;28;20045;-52
2021/01/07 02:13:04;;;;;;;33.65;16.52;;;;;;;0.59;100.00;100885.97;5039486;28;20037;-52
2021/01/07 02:15:38;;;;;;;35.38;16.92;;;;;;;0.54;100.00;100895.06;5044659;28;20048;-53
2021/01/07 02:18:06;;;;;;;32.28;15.60;;;;;;;0.73;100.00;100894.78;5040306;28;20052;-52
2021/01/07 02:20:34;;;;;;;36.97;16.30;;;;;;;0.71;100.00;100894.00;5039938;28;20203;-52
2021/01/07 02:23:01;;;;;;;38.38;16.33;;;;;;;0.76;100.00;100897.22;5037778;28;21925;-53
2021/01/07 02:25:28;;;;;;;35.05;16.10;;;;;;;0.72;100.00;100891.28;5043688;28;20045;-52
2021/01/07 02:27:55;;;;;;;36.20;17.08;;;;;;;0.67;100.00;100894.22;5035795;28;20042;-54
2021/01/07 02:30:22;;;;;;;31.63;15.73;;;;;;;0.72;100.00;100895.72;5038920;28;20309;-51
2021/01/07 02:32:50;;;;;;;28.65;14.80;;;;;;;0.74;100.00;100888.56;5040965;28;20048;-51
2021/01/07 02:35:17;;;;;;;34.60;19.17;;;;;;;0.61;100.00;100899.00;5036306;28;20049;-53
2021/01/07 02:37:46;;;;;;;34.33;15.93;;;;;;;0.63;100.00;100897.97;5043246;28;20041;-53
2021/01/07 02:40:14;;;;;;;34.47;17.75;;;;;;;0.57;100.00;100892.25;5042902;28;20060;-54
2021/01/07 02:42:41;;;;;;;38.05;17.42;;;;;;;0.59;100.00;100891.22;5041719;28;20045;-54
2021/01/07 02:45:09;;;;;;;33.58;18.15;;;;;;;0.58;100.00;100891.31;5044606;28;20041;-52
2021/01/07 02:47:36;;;;;;;37.58;20.65;;;;;;;0.60;100.00;100892.91;5047042;28;20531;-53
2021/01/07 02:50:04;;;;;;;38.38;19.20;;;;;;;0.59;100.00;100887.75;5046183;28;20267;-53
2021/01/07 02:52:31;;;;;;;32.42;16.83;;;;;;;0.65;100.00;100890.00;5046285;28;20052;-54
2021/01/07 02:54:59;;;;;;;32.97;16.50;;;;;;;0.66;100.00;100892.53;5043703;28;20042;-54
2021/01/07 02:57:26;;;;;;;37.08;18.17;;;;;;;0.58;100.00;100889.56;5048678;28;20079;-52
2021/01/07 02:59:52;;;;;;;39.63;17.10;;;;;;;0.57;100.00;100879.09;5044194;28;20342;-53
2021/01/07 03:02:19;;;;;;;35.63;18.60;;;;;;;0.59;100.00;100891.22;5043246;28;20053;-51
2021/01/07 03:04:46;;;;;;;37.67;17.23;;;;;;;0.59;100.00;100891.22;5046983;28;20045;-53
2021/01/07 03:07:14;;;;;;;36.40;17.90;;;;;;;0.57;100.00;100882.59;5045065;28;20064;-55
2021/01/07 03:09:42;;;;;;;40.03;18.70;;;;;;;0.58;100.00;100884.28;5043247;28;20042;-52
2021/01/07 03:12:12;;;;;;;31.65;16.73;;;;;;;0.59;100.00;100880.72;5043434;28;20344;-53
2021/01/07 03:14:39;;;;;;;36.78;17.35;;;;;;;0.57;100.00;100887.84;5040205;28;20045;-54
2021/01/07 03:17:06;;;;;;;31.83;17.00;;;;;;;0.61;100.00;100877.97;5049134;28;20061;-54
2021/01/07 03:19:36;;;;;;;33.28;15.05;;;;;;;0.61;100.00;100878.84;5045171;28;20333;-54
2021/01/07 03:22:03;;;;;;;35.25;17.20;;;;;;;0.55;100.00;100879.22;5041812;28;20385;-55
2021/01/07 03:24:31;;;;;;;33.42;16.80;;;;;;;0.57;100.00;100879.97;5039355;28;20366;-53
2021/01/07 03:27:01;;;;;;;29.15;15.05;;;;;;;0.60;100.00;100871.88;5045078;28;20406;-54
2021/01/07 03:29:29;;;;;;;33.70;16.83;;;;;;;0.62;100.00;100875.25;5043252;28;20041;-51
2021/01/07 03:31:56;;;;;;;38.35;17.58;;;;;;;0.64;100.00;100873.38;5037948;28;20136;-55
2021/01/07 03:34:23;;;;;;;33.38;16.15;;;;;;;0.67;100.00;100881.06;5047943;28;20068;-55
2021/01/07 03:36:50;;;;;;;37.75;17.83;;;;;;;0.67;100.00;100869.72;5042896;28;20045;-51
2021/01/07 03:39:17;;;;;;;36.40;16.10;;;;;;;0.71;100.00;100865.97;5043423;28;20056;-54
2021/01/07 03:41:44;;;;;;;37.25;17.08;;;;;;;0.60;100.00;100871.88;5044157;28;20359;-55
2021/01/07 03:44:12;;;;;;;36.03;17.45;;;;;;;0.63;100.00;100865.59;5043164;28;20345;-55
2021/01/07 03:46:40;;;;;;;35.00;16.95;;;;;;;0.60;100.00;100869.25;5045904;28;20056;-53
2021/01/07 03:49:07;;;;;;;29.30;15.93;;;;;;;0.68;100.00;100864.38;5045113;28;20341;-53
2021/01/07 03:51:34;;;;;;;30.23;14.75;;;;;;;0.67;100.00;100870.56;5045161;28;20041;-52
2021/01/07 03:54:01;;;;;;;32.10;15.75;;;;;;;0.68;100.00;100859.09;5041048;28;20052;-55
2021/01/07 03:56:28;;;;;;;31.23;15.88;;;;;;;0.77;100.00;100857.66;5042648;28;20037;-54
2021/01/07 03:58:55;;;;;;;32.78;14.10;;;;;;;0.76;100.00;100857.78;5040693;28;20042;-54
2021/01/07 04:01:23;;;;;;;29.83;14.10;;;;;;;0.81;100.00;100853.91;5041318;28;20049;-53
2021/01/07 04:03:51;;;;;;;34.00;15.82;;;;;;;0.83;100.00;100841.50;5039879;28;20381;-55
2021/01/07 04:06:18;;;;;;;31.60;14.93;;;;;;;0.80;100.00;100854.00;5043947;28;20488;-55
2021/01/07 04:08:45;;;;;;;35.03;18.70;;;;;;;0.63;100.00;100849.81;5043499;28;20041;-52
2021/01/07 04:11:14;;;;;;;34.85;18.58;;;;;;;0.65;100.00;100851.44;5044769;28;20318;-53
2021/01/07 04:13:41;;;;;;;41.38;20.83;;;;;;;0.61;100.00;100852.56;5045058;28;20044;-54
2021/01/07 04:16:08;;;;;;;40.55;18.15;;;;;;;0.67;100.00;100846.91;5043980;28;20045;-55
2021/01/07 04:18:35;;;;;;;39.83;20.30;;;;;;;0.62;100.00;100851.59;5044018;28;20064;-55
2021/01/07 04:21:03;;;;;;;44.40;20.88;;;;;;;0.57;100.00;100845.81;5044759;28;20320;-53
2021/01/07 04:23:29;;;;;;;36.75;18.38;;;;;;;0.63;100.00;100840.16;5035037;28;20095;-56
2021/01/07 04:25:56;;;;;;;34.92;16.60;;;;;;;0.68;100.00;100838.06;5042738;28;20052;-54
2021/01/07 04:28:24;;;;;;;35.47;17.42;;;;;;;0.64;100.00;100833.13;5043130;28;20448;-52
2021/01/07 04:30:50;;;;;;;32.33;16.67;;;;;;;0.66;100.00;100845.19;5035987;28;20425;-53
2021/01/07 04:33:18;;;;;;;35.13;16.20;;;;;;;0.74;100.00;100828.09;5037786;28;20048;-53
2021/01/07 04:35:44;;;;;;;38.53;20.30;;;;;;;0.58;100.00;100833.50;5041358;28;20049;-51
2021/01/07 04:38:13;;;;;;;31.63;16.05;;;;;;;0.64;100.00;100830.50;5041826;28;20037;-54
2021/01/07 04:40:40;;;;;;;40.22;19.05;;;;;;;0.50;100.00;100832.22;5043275;28;20040;-54
2021/01/07 04:43:06;;;;;;;38.55;17.13;;;;;;;0.55;100.00;100831.91;5039503;28;20057;-53
2021/01/07 04:45:33;;;;;;;39.20;18.85;;;;;;;0.44;100.00;100829.97;5043221;28;20535;-52
2021/01/07 04:48:01;;;;;;;31.23;16.10;;;;;;;0.56;100.00;100822.25;5044782;28;20052;-53
2021/01/07 04:50:28;;;;;;;32.03;16.38;;;;;;;0.43;100.00;100822.19;5044473;28;20428;-55
2021/01/07 04:52:55;;;;;;;25.10;14.48;;;;;;;0.51;100.00;100819.91;5044162;28;20128;-51
2021/01/07 04:55:23;;;;;;;31.75;15.40;;;;;;;0.41;100.00;100822.28;5043231;28;20356;-52
2021/01/07 04:57:50;;;;;;;29.08;15.57;;;;;;;0.38;100.00;100819.84;5043052;28;20056;-50
2021/01/07 05:00:18;;;;;;;33.15;15.57;;;;;;;0.42;100.00;100821.34;5023408;28;20045;-51
2021/01/07 05:02:45;;;;;;;28.83;14.13;;;;;;;0.45;100.00;100822.94;5043753;28;20045;-48
2021/01/07 05:05:12;;;;;;;30.00;13.90;;;;;;;0.40;100.00;100815.34;5038502;28;20034;-52
2021/01/07 05:07:39;;;;;;;27.67;14.05;;;;;;;0.41;100.00;100813.53;5042393;28;20056;-54
2021/01/07 05:10:08;;;;;;;28.17;13.35;;;;;;;0.44;100.00;100815.97;5039995;28;20041;-48
2021/01/07 05:12:37;;;;;;;24.70;11.85;;;;;;;0.41;100.00;100817.03;5041988;28;20059;-47
2021/01/07 05:15:06;;;;;;;26.27;14.43;;;;;;;0.46;100.00;100824.63;5039255;28;20259;-49
2021/01/07 05:17:35;;;;;;;25.77;11.82;;;;;;;0.55;100.00;100821.38;5041088;28;20140;-49
2021/01/07 05:20:02;;;;;;;25.85;12.57;;;;;;;0.57;100.00;100819.53;5040288;28;20044;-52
2021/01/07 05:22:37;;;;;;;26.02;13.18;;;;;;;0.49;100.00;100821.78;5042158;28;20422;-49
2021/01/07 05:25:07;;;;;;;24.25;11.48;;;;;;;0.54;100.00;100830.25;5041397;28;20045;-52
2021/01/07 05:27:34;;;;;;;23.48;11.50;;;;;;;0.56;100.00;100825.72;5041933;28;20096;-52
2021/01/07 05:30:03;;;;;;;24.02;11.45;;;;;;;0.65;100.00;100817.25;5039508;28;20045;-51
2021/01/07 05:32:34;;;;;;;24.40;11.90;;;;;;;0.56;100.00;100825.72;5045644;28;20045;-49
2021/01/07 05:35:02;;;;;;;27.05;12.95;;;;;;;0.53;100.00;100818.03;5039512;28;20045;-51
2021/01/07 05:37:33;;;;;;;22.42;12.73;;;;;;;0.57;100.00;100819.53;5043365;28;20395;-51
2021/01/07 05:40:00;;;;;;;29.92;13.05;;;;;;;0.56;100.00;100823.09;5043724;28;20453;-51
2021/01/07 05:42:27;;;;;;;26.90;13.65;;;;;;;0.57;100.00;100813.41;5039598;28;20064;-51
2021/01/07 05:44:55;;;;;;;25.90;11.75;;;;;;;0.58;100.00;100815.97;5037556;28;20037;-53
2021/01/07 05:47:27;;;;;;;23.10;12.73;;;;;;;0.59;100.00;100808.91;5043998;28;20053;-51
2021/01/07 05:49:55;;;;;;;21.20;11.65;;;;;;;0.62;100.00;100811.34;5042353;28;20437;-51
2021/01/07 05:52:22;;;;;;;23.20;11.23;;;;;;;0.63;100.00;100813.03;5040410;28;20314;-51
2021/01/07 05:54:50;;;;;;;21.05;11.73;;;;;;;0.59;100.00;100812.38;5040853;28;20333;-50
2021/01/07 05:57:18;;;;;;;19.65;11.07;;;;;;;0.59;100.00;100817.63;5040106;28;20420;-52
2021/01/07 05:59:47;;;;;;;16.70;8.63;;;;;;;0.60;100.00;100813.22;5042024;28;20041;-52
2021/01/07 06:02:16;;;;;;;18.35;9.80;;;;;;;0.55;100.00;100808.25;5039150;28;20106;-53
2021/01/07 06:04:44;;;;;;;17.40;9.23;;;;;;;0.57;100.00;100819.53;5044835;28;20290;-53
2021/01/07 06:07:12;;;;;;;20.38;10.30;;;;;;;0.58;100.00;100817.72;5043399;28;20048;-52
2021/01/07 06:09:42;;;;;;;17.25;9.20;;;;;;;0.55;100.00;100810.88;5041998;28;20297;-51
2021/01/07 06:12:12;;;;;;;15.68;8.30;;;;;;;0.54;100.00;100822.34;5043378;28;20124;-53
2021/01/07 06:14:41;;;;;;;19.38;9.57;;;;;;;0.48;100.00;100814.84;5046998;28;20447;-54
2021/01/07 06:17:08;;;;;;;18.90;8.82;;;;;;;0.48;100.00;100812.22;5048922;28;20049;-51
2021/01/07 06:19:38;;;;;;;15.20;8.75;;;;;;;0.48;100.00;100817.47;5043592;28;20052;-53
2021/01/07 06:22:10;;;;;;;19.83;8.88;;;;;;;0.49;100.00;100811.28;5044830;28;20048;-53
2021/01/07 06:24:38;;;;;;;16.27;8.77;;;;;;;0.43;100.00;100812.50;5044148;28;20052;-52
2021/01/07 06:27:27;;;;;;;16.60;8.52;;;;;;;0.41;100.00;100817.03;5045883;28;20064;-54
2021/01/07 06:30:11;;;;;;;19.50;9.40;;;;;;;0.37;100.00;100819.94;5040831;28;20074;-52
2021/01/07 06:32:41;;;;;;;18.60;9.38;;;;;;;0.38;100.00;100821.63;5025758;28;20349;-51
2021/01/07 06:35:10;;;;;;;17.40;9.32;;;;;;;0.34;100.00;100820.97;5045090;28;20037;-53
2021/01/07 06:37:41;;;;;;;21.95;10.27;;;;;;;0.33;100.00;100822.75;5044536;28;20041;-54
2021/01/07 06:40:10;;;;;;;20.45;10.02;;;;;;;0.29;100.00;100828.31;5043611;28;20048;-53
2021/01/07 06:42:39;;;;;;;22.92;11.02;;;;;;;0.26;100.00;100826.72;5044347;28;20044;-52
2021/01/07 06:45:08;;;;;;;16.60;9.45;;;;;;;0.33;100.00;100827.19;5043287;28;20235;-53
2021/01/07 06:47:37;;;;;;;20.88;10.57;;;;;;;0.25;100.00;100829.44;5044823;28;20045;-52
2021/01/07 06:50:10;;;;;;;20.70;11.48;;;;;;;0.17;100.00;100829.91;5042208;28;20045;-53
2021/01/07 06:52:39;;;;;;;18.90;10.15;;;;;;;0.13;100.00;100831.06;5046389;28;20189;-54
2021/01/07 06:55:12;;;;;;;23.10;11.65;;;;;;;0.07;100.00;100834.03;5045934;28;20379;-54
2021/01/07 06:57:46;;;;;;;27.00;14.02;;;;;;;0.06;100.00;100834.97;5045975;28;20048;-53
2021/01/07 07:00:15;;;;;;;23.75;11.45;;;;;;;-0.02;100.00;100827.59;5048946;28;20041;-53
2021/01/07 07:02:57;;;;;;;21.88;11.05;;;;;;;0.03;100.00;100827.28;5038571;28;20438;-52
2021/01/07 07:05:25;;;;;;;19.63;10.25;;;;;;;0.14;100.00;100822.22;5038960;28;20051;-53
2021/01/07 07:08:08;;;;;;;20.27;10.68;;;;;;;-0.01;100.00;100824.88;5049262;28;20327;-53
2021/01/07 07:10:56;;;;;;;19.73;9.75;;;;;;;0.12;100.00;100829.38;5043163;28;20102;-49
2021/01/07 07:13:25;;;;;;;23.83;10.65;;;;;;;0.07;100.00;100831.44;5047354;28;20292;-54
2021/01/07 07:15:52;;;;;;;26.02;11.48;;;;;;;0.01;100.00;100837.06;5048378;28;20044;-49
2021/01/07 07:18:25;;;;;;;22.88;11.43;;;;;;;0.05;100.00;100830.69;5045472;28;20045;-54
2021/01/07 07:20:53;;;;;;;27.02;11.45;;;;;;;0.08;100.00;100833.13;5047029;28;20056;-50
2021/01/07 07:23:21;;;;;;;20.67;10.52;;;;;;;0.23;100.00;100832.16;5047029;28;20041;-54
2021/01/07 07:25:50;;;;;;;22.13;10.52;;;;;;;0.28;100.00;100834.50;5046551;28;20049;-53
2021/01/07 07:28:18;;;;;;;27.15;12.93;;;;;;;0.11;100.00;100838.19;5042600;28;20045;-50
2021/01/07 07:30:46;;;;;;;20.65;10.32;;;;;;;0.18;100.00;100836.84;5042910;28;20063;-53
2021/01/07 07:33:30;;;;;;;22.80;12.25;;;;;;;0.06;100.00;100850.72;5042187;28;20056;-52
2021/01/07 07:35:58;;;;;;;21.70;11.15;;;;;;;0.12;100.00;100834.63;5047443;28;20049;-53
2021/01/07 07:38:30;;;;;;;20.40;11.27;;;;;;;0.21;100.00;100844.53;5047585;28;20041;-51
2021/01/07 07:41:01;;;;;;;20.92;10.45;;;;;;;0.29;100.00;100849.34;5039680;28;20459;-53
2021/01/07 07:43:30;;;;;;;24.42;12.50;;;;;;;0.23;100.00;100857.56;5047438;28;20037;-53
2021/01/07 07:45:58;;;;;;;26.95;11.82;;;;;;;0.27;100.00;100854.69;5045256;28;20456;-54
2021/01/07 07:48:25;;;;;;;32.67;14.05;;;;;;;0.28;100.00;100853.72;5045475;28;20051;-50
2021/01/07 07:51:05;;;;;;;26.77;12.30;;;;;;;0.32;100.00;100854.38;5046828;28;20052;-53
2021/01/07 07:53:33;;;;;;;57.28;15.93;;;;;;;0.34;100.00;100852.50;5047541;28;20041;-54
2021/01/07 07:56:01;;;;;;;26.48;12.90;;;;;;;0.38;100.00;100855.78;5045740;28;20363;-52
2021/01/07 07:58:28;;;;;;;26.50;11.88;;;;;;;0.49;100.00;100866.47;5044561;28;20041;-52
2021/01/07 08:00:56;;;;;;;27.23;11.95;;;;;;;0.43;100.00;100865.06;5041470;28;20049;-53
2021/01/07 08:03:24;;;;;;;29.77;11.48;;;;;;;0.56;100.00;100875.66;5043224;28;20040;-52
2021/01/07 08:05:51;;;;;;;25.55;13.52;;;;;;;0.49;100.00;100869.09;5042680;28;20040;-53
2021/01/07 08:08:23;;;;;;;25.15;12.68;;;;;;;0.48;100.00;100867.41;5042176;28;20055;-53
2021/01/07 08:10:53;;;;;;;27.73;12.65;;;;;;;0.52;100.00;100879.41;5039573;28;20045;-53
2021/01/07 08:13:20;;;;;;;25.67;12.77;;;;;;;0.55;100.00;100876.59;5045934;28;20053;-50
2021/01/07 08:15:49;;;;;;;27.90;11.93;;;;;;;0.56;100.00;100883.53;5046871;28;20040;-52
2021/01/07 08:18:19;;;;;;;31.35;14.05;;;;;;;0.56;100.00;100880.91;5037283;28;20046;-49
2021/01/07 08:20:48;;;;;;;21.75;11.13;;;;;;;0.58;100.00;100879.03;5043270;28;20388;-53
2021/01/07 08:23:16;;;;;;;25.13;11.45;;;;;;;0.70;100.00;100871.31;5042168;28;20049;-50
2021/01/07 08:25:45;;;;;;;18.25;10.40;;;;;;;0.74;100.00;100862.25;5044416;28;20047;-52
2021/01/07 08:28:17;;;;;;;18.75;9.02;;;;;;;0.79;100.00;100860.19;5041056;28;20329;-50
2021/01/07 08:30:49;;;;;;;16.55;9.02;;;;;;;0.85;100.00;100867.69;5039284;28;20065;-51
2021/01/07 08:33:22;;;;;;;16.92;10.43;;;;;;;0.78;100.00;100864.63;5042558;28;20376;-50
2021/01/07 08:35:50;;;;;;;19.35;9.18;;;;;;;0.76;100.00;100876.19;5045879;28;20040;-49
2021/01/07 08:38:24;;;;;;;19.60;9.52;;;;;;;0.73;100.00;100876.38;5043906;28;20047;-50
2021/01/07 08:40:52;;;;;;;18.17;9.02;;;;;;;0.83;100.00;100867.78;5037983;28;20061;-53
2021/01/07 08:43:20;;;;;;;15.07;8.30;;;;;;;0.78;100.00;100871.66;5041601;28;20045;-50
2021/01/07 08:45:47;;;;;;;20.42;10.57;;;;;;;0.73;100.00;100873.75;5040694;28;20440;-51
2021/01/07 08:48:14;;;;;;;15.77;9.50;;;;;;;0.80;100.00;100867.16;5041457;28;20318;-54
2021/01/07 08:50:41;;;;;;;14.07;8.20;;;;;;;0.71;100.00;100875.59;5042061;28;20452;-52
2021/01/07 08:53:14;;;;;;;40.35;9.95;;;;;;;0.57;100.00;100877.34;5037766;28;20500;-51
2021/01/07 08:55:45;;;;;;;15.32;7.65;;;;;;;0.60;100.00;100877.16;5040675;28;20136;-53
2021/01/07 08:58:24;;;;;;;14.82;8.30;;;;;;;0.60;100.00;100884.19;5040889;28;20139;-54
2021/01/07 09:00:55;;;;;;;14.35;7.85;;;;;;;0.47;100.00;100873.63;5038577;28;20344;-50
2021/01/07 09:03:21;;;;;;;24.40;8.27;;;;;;;0.54;100.00;100877.53;5042340;28;21638;-53
2021/01/07 09:05:48;;;;;;;17.77;9.77;;;;;;;0.60;100.00;100879.78;5039953;28;20037;-52
2021/01/07 09:08:16;;;;;;;15.18;7.80;;;;;;;0.74;100.00;100872.78;5037647;28;20052;-52
2021/01/07 09:10:42;;;;;;;18.98;8.82;;;;;;;0.69;100.00;100870.44;5041459;28;20072;-53
2021/01/07 09:13:17;;;;;;;15.85;8.02;;;;;;;0.70;100.00;100879.22;5041775;28;20437;-52
2021/01/07 09:15:45;;;;;;;17.42;8.25;;;;;;;0.71;100.00;100884.38;5043674;28;20040;-51
2021/01/07 09:18:12;;;;;;;19.23;9.10;;;;;;;0.72;100.00;100874.69;5041764;28;20045;-52
2021/01/07 09:20:40;;;;;;;16.35;7.47;;;;;;;0.86;100.00;100882.53;5039614;28;20049;-50
2021/01/07 09:23:08;;;;;;;16.35;7.78;;;;;;;0.91;100.00;100876.97;5043214;28;20433;-52
2021/01/07 09:25:36;;;;;;;14.68;7.70;;;;;;;0.89;100.00;100871.81;5042210;28;20314;-53
2021/01/07 09:28:04;;;;;;;16.70;8.52;;;;;;;0.83;100.00;100869.56;5040782;28;20417;-50
2021/01/07 09:30:32;;;;;;;12.82;7.32;;;;;;;0.79;100.00;100876.81;5039616;28;20437;-54
2021/01/07 09:33:00;;;;;;;14.82;7.18;;;;;;;0.88;100.00;100878.03;5040341;28;20041;-51
2021/01/07 09:35:28;;;;;;;10.45;6.75;;;;;;;0.89;100.00;100871.81;5042143;28;20043;-52
2021/01/07 09:38:00;;;;;;;14.85;6.63;;;;;;;0.81;100.00;100874.94;5038852;28;20070;-53
2021/01/07 09:40:27;;;;;;;13.90;6.38;;;;;;;1.07;100.00;100875.03;5040157;28;20129;-54
2021/01/07 09:42:54;;;;;;;18.25;7.07;;;;;;;1.04;100.00;100869.97;5041413;28;20041;-53
2021/01/07 09:45:21;;;;;;;16.10;7.53;;;;;;;1.00;100.00;100877.22;5040978;28;20323;-52
2021/01/07 09:47:48;;;;;;;12.85;7.18;;;;;;;1.06;100.00;100872.50;5044917;28;20044;-53
2021/01/07 09:50:20;;;;;;;12.07;6.32;;;;;;;1.12;100.00;100874.72;5044121;28;20060;-51
2021/01/07 09:52:47;;;;;;;17.42;7.60;;;;;;;1.14;100.00;100878.09;5045315;28;20045;-51
2021/01/07 09:55:14;;;;;;;16.38;7.68;;;;;;;1.19;100.00;100873.38;5045859;28;20043;-52
2021/01/07 09:57:46;;;;;;;15.30;7.22;;;;;;;1.21;100.00;100876.75;5047243;28;20064;-51
2021/01/07 10:00:15;;;;;;;15.27;8.48;;;;;;;1.30;100.00;100873.50;5043977;28;20091;-54
2021/01/07 10:02:42;;;;;;;17.65;7.88;;;;;;;1.36;100.00;100874.88;5045703;28;20045;-54
2021/01/07 10:05:10;;;;;;;13.93;7.75;;;;;;;1.53;100.00;100866.72;5041128;28;20040;-50
2021/01/07 10:07:39;;;;;;;15.20;8.38;;;;;;;1.51;100.00;100871.22;5046439;28;20083;-53
2021/01/07 10:10:08;;;;;;;11.90;6.28;;;;;;;1.54;100.00;100872.81;5046422;28;20091;-54
2021/01/07 10:12:35;;;;;;;17.15;8.75;;;;;;;1.79;100.00;100871.19;5044472;28;20483;-56
2021/01/07 10:15:02;;;;;;;11.15;6.47;;;;;;;1.71;100.00;100871.69;5046980;28;20041;-54
2021/01/07 10:17:28;;;;;;;15.10;7.55;;;;;;;1.99;100.00;100875.06;5039951;28;20042;-56
2021/01/07 10:19:55;;;;;;;15.55;7.03;;;;;;;1.82;100.00;100879.69;5048476;28;20044;-54
2021/01/07 10:22:23;;;;;;;13.88;8.85;;;;;;;1.65;100.00;100875.56;5050556;28;20045;-55
2021/01/07 10:24:55;;;;;;;12.88;6.00;;;;;;;1.74;100.00;100873.25;5049353;28;20051;-54
2021/01/07 10:27:22;;;;;;;10.85;5.82;;;;;;;1.77;100.00;100870.41;5045218;28;20488;-54
2021/01/07 10:29:49;;;;;;;7.38;4.20;;;;;;;2.10;100.00;100866.41;5046042;28;20052;-55
2021/01/07 10:32:18;;;;;;;10.77;5.55;;;;;;;2.03;100.00;100864.19;5041773;28;20049;-54
2021/01/07 10:34:49;;;;;;;14.38;5.68;;;;;;;2.16;100.00;100858.09;5041687;28;20049;-53
2021/01/07 10:37:18;;;;;;;14.90;6.18;;;;;;;1.84;100.00;100864.66;5045036;28;20049;-55
2021/01/07 10:39:47;;;;;;;8.70;4.38;;;;;;;2.09;100.00;100862.94;5044180;28;20448;-55
2021/01/07 10:42:16;;;;;;;12.27;5.25;;;;;;;1.97;100.00;100864.63;5038353;28;20037;-52
2021/01/07 10:44:46;;;;;;;14.18;6.00;;;;;;;2.09;100.00;100862.94;5041706;28;20064;-50
2021/01/07 10:47:14;;;;;;;9.27;4.97;;;;;;;2.48;100.00;100862.84;5042472;28;20220;-54
2021/01/07 10:49:45;;;;;;;9.18;4.53;;;;;;;2.71;100.00;100853.31;5046389;28;20052;-54
2021/01/07 10:52:34;;;;;;;14.90;6.25;;;;;;;2.34;100.00;100856.78;5040365;28;20442;-54
2021/01/07 10:55:16;;;;;;;13.88;5.47;;;;;;;2.12;100.00;100851.34;5043640;28;20436;-56
2021/01/07 10:58:28;;;;;;;9.50;5.75;;;;;;;2.30;100.00;100860.59;5045959;28;20049;-55
2021/01/07 11:01:04;;;;;;;11.50;5.20;;;;;;;2.71;99.33;100859.41;5035646;28;20433;-54
2021/01/07 11:03:45;;;;;;;7.15;4.47;;;;;;;2.56;98.39;100860.53;5039872;28;20057;-51
2021/01/07 11:06:13;;;;;;;15.13;5.95;;;;;;;2.65;98.97;100859.00;5045149;28;20045;-55
2021/01/07 11:08:47;;;;;;;14.63;5.25;;;;;;;2.67;99.26;100857.13;5050183;28;20126;-54
2021/01/07 11:11:21;;;;;;;16.40;5.90;;;;;;;2.47;99.40;100853.28;5044415;28;20049;-54
2021/01/07 11:13:54;;;;;;;9.25;5.88;;;;;;;2.35;99.02;100858.47;5043244;28;20052;-54
2021/01/07 11:16:24;;;;;;;11.05;4.80;;;;;;;2.38;99.04;100860.88;5045339;28;20038;-54
2021/01/07 11:18:58;;;;;;;11.30;5.80;;;;;;;2.55;99.10;100856.19;5045209;28;20384;-54